KFSM/FSM METAR and TAF weather

Enter ICAO airport designator
Station Type Date Time Source
KFSM METAR 2023/02/05 23:53 UTC NOAA

KFSM 052353Z 07004KT 10SM CLR 15/04 A3011 RMK AO2 SLP196 T01500044 10194 20128 58002


Station Type Date Time Source
KFSM Decoded METAR 2023/02/05 23:53 UTC NOAA

FORT SMITH REGIONAL AIRPORT, AR, United States (KFSM) 35-20N 94-22W 140M
Feb 05, 2023 - 06:53 PM EST / 2023.02.05 2353 UTC
Wind: from the ENE (070 degrees) at 5 MPH (4 KT):0
Visibility: 10 mile(s):0
Sky conditions: clear
Temperature: 59.0 F (15.0 C)
Dew Point: 39.9 F (4.4 C)
Relative Humidity: 49%
Pressure (altimeter): 30.11 in. Hg (1019 hPa)
Pressure tendency: 0.01 inches (0.2 hPa) lower than three hours ago
ob: KFSM 052353Z 07004KT 10SM CLR 15/04 A3011 RMK AO2 SLP196 T01500044 10194 20128 58002
cycle: 0

Station Type Date Time Source
KFSM TAF 2023/02/05 18:22 UTC NOAA

TAF KFSM 051720Z 0518/0618 VRB05KT P6SM FEW250
FM060300 07004KT P6SM FEW250
FM061000 10007KT P6SM SCT025 SCT250 WS020/20030KT
FM061400 12012KT P6SM BKN015

Example: see airport list